createdAt,value
2022-08-24T00:02:17.025Z,21.13
2022-08-24T00:04:45.550Z,21.10
2022-08-24T00:07:27.509Z,21.03
2022-08-24T00:09:56.382Z,20.96
2022-08-24T00:12:25.105Z,20.88
2022-08-24T00:14:54.121Z,20.84
2022-08-24T00:17:21.799Z,20.79
2022-08-24T00:19:49.515Z,20.76
2022-08-24T00:22:17.204Z,20.75
2022-08-24T00:24:44.919Z,20.73
2022-08-24T00:27:12.613Z,20.70
2022-08-24T00:29:40.383Z,20.67
2022-08-24T00:32:08.142Z,20.66
2022-08-24T00:34:35.937Z,20.65
2022-08-24T00:37:04.269Z,20.62
2022-08-24T00:39:32.303Z,20.59
2022-08-24T00:41:59.946Z,20.54
2022-08-24T00:44:27.676Z,20.49
2022-08-24T00:46:59.443Z,20.44
2022-08-24T00:49:37.295Z,20.39
2022-08-24T00:52:12.333Z,20.37
2022-08-24T00:54:46.294Z,20.38
2022-08-24T00:57:18.606Z,20.38
2022-08-24T00:59:50.706Z,20.31
2022-08-24T01:02:24.526Z,20.21
2022-08-24T01:04:55.085Z,20.14
2022-08-24T01:07:24.234Z,20.05
2022-08-24T01:09:55.707Z,19.98
2022-08-24T01:12:24.628Z,19.95
2022-08-24T01:14:53.188Z,19.94
2022-08-24T01:17:40.626Z,19.92
2022-08-24T01:20:11.756Z,19.89
2022-08-24T01:22:52.762Z,19.83
2022-08-24T01:25:21.306Z,19.74
2022-08-24T01:27:51.721Z,19.69
2022-08-24T01:30:21.547Z,19.67
2022-08-24T01:33:00.953Z,19.60
2022-08-24T01:35:30.874Z,19.53
2022-08-24T01:38:02.012Z,19.47
2022-08-24T01:40:35.314Z,19.40
2022-08-24T01:43:05.038Z,19.35
2022-08-24T01:45:33.862Z,19.31
2022-08-24T01:48:02.436Z,19.31
2022-08-24T01:50:30.959Z,19.33
2022-08-24T01:53:05.285Z,19.33
2022-08-24T01:55:34.841Z,19.34
2022-08-24T01:58:04.639Z,19.36
2022-08-24T02:00:33.985Z,19.38
2022-08-24T02:03:03.157Z,19.39
2022-08-24T02:05:31.204Z,19.40
2022-08-24T02:07:59.391Z,19.40
2022-08-24T02:10:28.089Z,19.39
2022-08-24T02:12:58.064Z,19.37
2022-08-24T02:15:30.252Z,19.34
2022-08-24T02:17:59.244Z,19.30
2022-08-24T02:20:27.922Z,19.32
2022-08-24T02:22:56.807Z,19.33
2022-08-24T02:25:29.441Z,19.33
2022-08-24T02:27:57.570Z,19.29
2022-08-24T02:30:26.432Z,19.24
2022-08-24T02:32:54.412Z,19.21
2022-08-24T02:35:22.485Z,19.16
2022-08-24T02:37:51.506Z,19.12
2022-08-24T02:40:19.580Z,19.10
2022-08-24T02:42:47.734Z,19.05
2022-08-24T02:45:15.755Z,18.99
2022-08-24T02:47:44.872Z,18.96
2022-08-24T02:50:15.301Z,18.92
2022-08-24T02:52:44.613Z,18.89
2022-08-24T02:55:16.534Z,18.85
2022-08-24T02:57:49.796Z,18.83
2022-08-24T03:00:22.203Z,18.82
2022-08-24T03:02:54.189Z,18.82
2022-08-24T03:05:23.266Z,18.83
2022-08-24T03:07:52.373Z,18.82
2022-08-24T03:10:20.975Z,18.81
2022-08-24T03:12:49.419Z,18.83
2022-08-24T03:15:20.990Z,18.88
2022-08-24T03:17:49.766Z,18.89
2022-08-24T03:20:21.194Z,18.90
2022-08-24T03:22:49.377Z,18.88
2022-08-24T03:25:19.112Z,18.84
2022-08-24T03:27:47.098Z,18.79
2022-08-24T03:30:15.705Z,18.75
2022-08-24T03:32:45.341Z,18.73
2022-08-24T03:35:14.502Z,18.72
2022-08-24T03:37:42.364Z,18.71
2022-08-24T03:40:23.167Z,18.72
2022-08-24T03:42:54.551Z,18.71
2022-08-24T03:45:22.690Z,18.68
2022-08-24T03:47:51.155Z,18.65
2022-08-24T03:50:20.409Z,18.62
2022-08-24T03:52:48.482Z,18.57
2022-08-24T03:55:16.471Z,18.54
2022-08-24T03:57:44.874Z,18.52
2022-08-24T04:00:14.747Z,18.51
2022-08-24T04:02:43.667Z,18.47
2022-08-24T04:05:14.498Z,18.46
2022-08-24T04:07:42.474Z,18.43
2022-08-24T04:10:14.396Z,18.41
2022-08-24T04:12:42.340Z,18.40
2022-08-24T04:15:12.268Z,18.38
2022-08-24T04:17:40.956Z,18.36
2022-08-24T04:20:11.225Z,18.34
2022-08-24T04:22:40.941Z,18.30
2022-08-24T04:25:11.418Z,18.28
2022-08-24T04:27:40.553Z,18.24
2022-08-24T04:30:14.169Z,18.23
2022-08-24T04:33:03.204Z,18.23
2022-08-24T04:35:31.170Z,18.22
2022-08-24T04:37:58.991Z,18.19
2022-08-24T04:40:27.315Z,18.17
2022-08-24T04:42:55.043Z,18.15
2022-08-24T04:45:24.383Z,18.14
2022-08-24T04:47:52.334Z,18.13
2022-08-24T04:50:21.432Z,18.14
2022-08-24T04:52:52.307Z,18.15
2022-08-24T04:55:20.310Z,18.15
2022-08-24T04:57:48.194Z,18.16
2022-08-24T05:00:16.876Z,18.17
2022-08-24T05:02:45.360Z,18.19
2022-08-24T05:05:14.148Z,18.22
2022-08-24T05:07:42.287Z,18.24
2022-08-24T05:10:10.874Z,18.25
2022-08-24T05:12:39.058Z,18.25
2022-08-24T05:15:12.607Z,18.26
2022-08-24T05:17:42.600Z,18.28
2022-08-24T05:20:18.861Z,18.30
2022-08-24T05:22:46.656Z,18.32
2022-08-24T05:25:14.508Z,18.33
2022-08-24T05:27:42.886Z,18.35
2022-08-24T05:30:13.441Z,18.38
2022-08-24T05:32:41.211Z,18.40
2022-08-24T05:35:10.229Z,18.41
2022-08-24T05:37:39.603Z,18.43
2022-08-24T05:40:17.918Z,18.46
2022-08-24T05:42:49.773Z,18.49
2022-08-24T05:45:18.008Z,18.51
2022-08-24T05:47:45.874Z,18.55
2022-08-24T05:50:31.822Z,18.63
2022-08-24T05:52:59.959Z,18.70
2022-08-24T05:55:29.829Z,18.78
2022-08-24T05:57:58.409Z,18.88
2022-08-24T06:00:26.599Z,18.99
2022-08-24T06:02:55.634Z,19.09
2022-08-24T06:05:23.715Z,19.19
2022-08-24T06:07:51.593Z,19.29
2022-08-24T06:10:36.340Z,19.40
2022-08-24T06:13:04.951Z,19.51
2022-08-24T06:15:32.903Z,19.62
2022-08-24T06:18:01.204Z,19.70
2022-08-24T06:20:31.781Z,19.78
2022-08-24T06:22:59.832Z,19.86
2022-08-24T06:25:52.012Z,19.94
2022-08-24T06:28:19.848Z,20.02
2022-08-24T06:30:48.533Z,20.08
2022-08-24T06:33:19.337Z,20.13
2022-08-24T06:35:50.833Z,20.21
2022-08-24T06:38:19.565Z,20.31
2022-08-24T06:40:48.658Z,20.43
2022-08-24T06:43:16.583Z,20.56
2022-08-24T06:45:56.870Z,20.69
2022-08-24T06:48:30.414Z,20.85
2022-08-24T06:50:58.688Z,20.99
2022-08-24T06:53:28.246Z,21.13
2022-08-24T06:55:58.095Z,21.25
2022-08-24T06:58:27.768Z,21.38
2022-08-24T07:00:56.454Z,21.51
2022-08-24T07:03:26.222Z,21.64
2022-08-24T07:06:03.943Z,21.83
2022-08-24T07:08:36.999Z,22.06
2022-08-24T07:11:05.336Z,22.27
2022-08-24T07:13:33.839Z,22.48
2022-08-24T07:16:02.461Z,22.67
2022-08-24T07:18:32.395Z,22.86
2022-08-24T07:21:02.350Z,22.99
2022-08-24T07:24:00.493Z,23.09
2022-08-24T07:26:30.686Z,23.20
2022-08-24T07:29:04.551Z,23.28
2022-08-24T07:31:38.004Z,23.36
2022-08-24T07:34:16.158Z,23.42
2022-08-24T07:36:44.961Z,23.43
2022-08-24T07:39:13.584Z,23.46
2022-08-24T07:42:11.063Z,23.48
2022-08-24T07:44:32.686Z,23.47
2022-08-24T07:47:15.158Z,23.45
2022-08-24T07:49:50.748Z,23.44
2022-08-24T07:52:22.603Z,23.45
2022-08-24T07:54:57.173Z,23.49
2022-08-24T07:57:28.808Z,23.55
2022-08-24T08:00:01.831Z,23.62
2022-08-24T08:02:47.570Z,23.69
2022-08-24T08:05:21.880Z,23.77
2022-08-24T08:07:53.648Z,23.85
2022-08-24T08:10:23.833Z,23.95
2022-08-24T08:12:53.253Z,24.04
2022-08-24T08:15:21.278Z,24.11
2022-08-24T08:18:02.730Z,24.22
2022-08-24T08:20:31.626Z,24.30
2022-08-24T08:23:18.038Z,24.38
2022-08-24T08:25:57.260Z,24.46
2022-08-24T08:28:36.147Z,24.53
2022-08-24T08:31:04.628Z,24.61
2022-08-24T08:33:35.414Z,24.68
2022-08-24T08:36:06.931Z,24.76
2022-08-24T08:38:36.434Z,24.87
2022-08-24T08:41:36.954Z,24.94
2022-08-24T08:44:20.739Z,25.05
2022-08-24T08:47:04.223Z,25.16
2022-08-24T08:49:55.612Z,25.29
2022-08-24T08:52:41.468Z,25.37
2022-08-24T08:55:24.102Z,25.43
2022-08-24T08:58:10.716Z,25.51
2022-08-24T09:00:55.451Z,25.60
2022-08-24T09:03:40.437Z,25.64
2022-08-24T09:06:51.651Z,25.67
2022-08-24T09:09:42.555Z,25.75
2022-08-24T09:12:22.546Z,25.85
2022-08-24T09:15:31.405Z,25.92
2022-08-24T09:18:13.032Z,26.04
2022-08-24T09:21:07.523Z,26.14
2022-08-24T09:23:47.779Z,26.29
2022-08-24T09:26:24.737Z,26.41
2022-08-24T09:29:01.778Z,26.55
2022-08-24T09:31:47.333Z,26.68
2022-08-24T09:34:32.873Z,26.81
2022-08-24T09:37:17.359Z,26.91
2022-08-24T09:40:02.111Z,27.04
2022-08-24T09:43:11.578Z,27.18
2022-08-24T09:46:21.294Z,27.36
2022-08-24T09:49:33.390Z,27.52
2022-08-24T09:52:48.076Z,27.70
2022-08-24T09:55:51.987Z,27.83
2022-08-24T09:58:36.529Z,27.99
2022-08-24T10:01:11.862Z,28.16
2022-08-24T10:03:54.369Z,28.29
2022-08-24T10:06:33.714Z,28.47
2022-08-24T10:09:24.229Z,28.80
2022-08-24T10:12:01.383Z,29.19
2022-08-24T10:14:44.811Z,29.60
2022-08-24T10:17:22.921Z,30.05
2022-08-24T10:20:04.564Z,30.48
2022-08-24T10:22:56.201Z,30.88
2022-08-24T10:25:33.649Z,31.38
2022-08-24T10:28:24.098Z,31.78
2022-08-24T10:31:02.046Z,32.09
2022-08-24T10:33:35.168Z,32.35
2022-08-24T10:36:26.772Z,32.58
2022-08-24T10:39:33.471Z,32.78
2022-08-24T10:42:51.652Z,33.11
2022-08-24T10:45:41.730Z,33.41
2022-08-24T10:48:36.272Z,33.62
2022-08-24T10:51:19.173Z,33.88
2022-08-24T10:53:51.250Z,34.19
2022-08-24T10:56:31.737Z,34.52
2022-08-24T10:59:06.919Z,34.74
2022-08-24T11:01:36.584Z,34.88
2022-08-24T11:04:09.386Z,34.93
2022-08-24T11:06:40.211Z,35.00
2022-08-24T11:09:10.853Z,34.94
2022-08-24T11:11:40.930Z,34.71
2022-08-24T11:14:09.857Z,34.24
2022-08-24T11:16:41.368Z,33.91
2022-08-24T11:19:12.986Z,33.73
2022-08-24T11:21:47.625Z,33.66
2022-08-24T11:24:38.925Z,33.57
2022-08-24T11:27:18.134Z,33.54
2022-08-24T11:29:59.224Z,33.54
2022-08-24T11:32:31.168Z,33.64
2022-08-24T11:35:04.131Z,33.83
2022-08-24T11:37:34.640Z,34.04
2022-08-24T11:40:04.169Z,34.22
2022-08-24T11:42:44.632Z,34.49
2022-08-24T11:45:18.655Z,34.53
2022-08-24T11:47:56.696Z,34.59
2022-08-24T11:50:34.362Z,34.75
2022-08-24T11:53:17.220Z,34.92
2022-08-24T11:56:00.141Z,35.08
2022-08-24T11:58:40.891Z,35.38
2022-08-24T12:01:13.735Z,35.69
2022-08-24T12:03:57.839Z,35.77
2022-08-24T12:06:36.206Z,35.67
2022-08-24T12:09:13.862Z,35.85
2022-08-24T12:11:50.870Z,36.09
2022-08-24T12:14:25.355Z,36.32
2022-08-24T12:17:01.152Z,36.57
2022-08-24T12:19:31.810Z,36.92
2022-08-24T12:22:02.929Z,36.78
2022-08-24T12:24:36.286Z,36.89
2022-08-24T12:27:10.317Z,37.14
2022-08-24T12:29:44.184Z,37.23
2022-08-24T12:32:18.246Z,37.26
2022-08-24T12:34:55.872Z,37.22
2022-08-24T12:37:31.251Z,37.29
2022-08-24T12:40:07.403Z,37.30
2022-08-24T12:42:44.574Z,37.39
2022-08-24T12:45:17.273Z,37.54
2022-08-24T12:47:50.363Z,37.67
2022-08-24T12:50:33.676Z,37.64
2022-08-24T12:53:34.870Z,37.57
2022-08-24T12:56:36.008Z,37.62
2022-08-24T12:59:21.379Z,37.60
2022-08-24T13:01:59.838Z,37.57
2022-08-24T13:04:42.994Z,37.51
2022-08-24T13:07:25.945Z,37.42
2022-08-24T13:10:08.656Z,37.40
2022-08-24T13:13:08.150Z,37.36
2022-08-24T13:15:59.156Z,37.11
2022-08-24T13:19:11.108Z,36.93
2022-08-24T13:21:43.796Z,37.13
2022-08-24T13:24:47.589Z,37.29
2022-08-24T13:28:11.205Z,37.41
2022-08-24T13:31:02.347Z,37.73
2022-08-24T13:33:37.470Z,37.81
2022-08-24T13:36:45.550Z,37.62
2022-08-24T13:39:34.240Z,37.65
2022-08-24T13:42:13.754Z,37.92
2022-08-24T13:45:08.373Z,38.09
2022-08-24T13:47:52.243Z,38.07
2022-08-24T13:50:34.079Z,38.02
2022-08-24T13:53:29.513Z,38.14
2022-08-24T13:56:30.257Z,38.30
2022-08-24T13:59:11.179Z,38.27
2022-08-24T14:02:05.285Z,38.37
2022-08-24T14:04:53.672Z,38.65
2022-08-24T14:07:25.520Z,38.50
2022-08-24T14:10:07.607Z,38.58
2022-08-24T14:12:49.784Z,38.81
2022-08-24T14:15:44.883Z,39.13
2022-08-24T14:18:21.415Z,39.23
2022-08-24T14:20:59.975Z,39.22
2022-08-24T14:23:51.590Z,39.33
2022-08-24T14:26:55.520Z,39.21
2022-08-24T14:29:42.357Z,39.08
2022-08-24T14:32:43.235Z,39.09
2022-08-24T14:35:30.339Z,38.94
2022-08-24T14:38:30.104Z,38.93
2022-08-24T14:41:19.036Z,39.03
2022-08-24T14:44:03.261Z,39.16
2022-08-24T14:46:40.231Z,39.09
2022-08-24T14:49:17.598Z,38.99
2022-08-24T14:51:59.146Z,38.97
2022-08-24T14:54:36.733Z,38.89
2022-08-24T14:57:30.349Z,38.87
2022-08-24T15:00:11.632Z,38.88
2022-08-24T15:03:07.175Z,38.82
2022-08-24T15:05:42.530Z,38.83
2022-08-24T15:08:26.985Z,38.88
2022-08-24T15:10:57.744Z,38.97
2022-08-24T15:13:31.507Z,38.98
2022-08-24T15:16:05.245Z,38.99
2022-08-24T15:18:40.036Z,38.84
2022-08-24T15:21:20.542Z,38.75
2022-08-24T15:23:58.804Z,38.55
2022-08-24T15:26:41.355Z,38.29
2022-08-24T15:29:15.676Z,38.45
2022-08-24T15:31:54.104Z,38.52
2022-08-24T15:34:34.866Z,38.44
2022-08-24T15:37:02.866Z,38.31
2022-08-24T15:39:31.034Z,38.02
2022-08-24T15:41:59.716Z,37.77
2022-08-24T15:44:31.371Z,37.53
2022-08-24T15:47:01.546Z,37.26
2022-08-24T15:49:33.380Z,36.85
2022-08-24T15:52:03.820Z,36.42
2022-08-24T15:54:35.221Z,35.94
2022-08-24T15:57:05.547Z,35.49
2022-08-24T15:59:47.235Z,35.02
2022-08-24T16:02:37.974Z,34.37
2022-08-24T16:05:18.319Z,33.95
2022-08-24T16:08:03.374Z,33.61
2022-08-24T16:10:34.465Z,33.39
2022-08-24T16:13:13.426Z,33.19
2022-08-24T16:15:49.536Z,32.97
2022-08-24T16:18:19.561Z,32.75
2022-08-24T16:20:48.819Z,32.52
2022-08-24T16:23:26.225Z,32.36
2022-08-24T16:26:23.138Z,32.23
2022-08-24T16:28:52.949Z,32.11
2022-08-24T16:32:04.235Z,32.03
2022-08-24T16:34:33.904Z,31.91
2022-08-24T16:37:02.790Z,31.81
2022-08-24T16:39:30.737Z,31.72
2022-08-24T16:42:03.673Z,31.62
2022-08-24T16:44:35.060Z,31.55
2022-08-24T16:47:04.116Z,31.67
2022-08-24T16:49:33.156Z,31.75
2022-08-24T16:52:02.626Z,31.70
2022-08-24T16:54:30.841Z,31.59
2022-08-24T16:57:00.883Z,31.50
2022-08-24T16:59:31.717Z,31.35
2022-08-24T17:02:00.178Z,31.20
2022-08-24T17:04:28.150Z,31.09
2022-08-24T17:06:57.894Z,31.02
2022-08-24T17:09:25.556Z,30.94
2022-08-24T17:11:53.284Z,30.87
2022-08-24T17:14:21.041Z,30.79
2022-08-24T17:16:48.918Z,30.71
2022-08-24T17:19:19.977Z,30.64
2022-08-24T17:21:48.094Z,30.57
2022-08-24T17:24:20.312Z,30.49
2022-08-24T17:26:50.111Z,30.40
2022-08-24T17:29:19.340Z,30.31
2022-08-24T17:31:49.323Z,30.23
2022-08-24T17:34:19.802Z,30.13
2022-08-24T17:36:49.987Z,30.05
2022-08-24T17:39:19.394Z,29.95
2022-08-24T17:41:47.830Z,29.84
2022-08-24T17:44:20.033Z,29.77
2022-08-24T17:46:49.658Z,29.70
2022-08-24T17:49:17.872Z,29.63
2022-08-24T17:51:45.723Z,29.55
2022-08-24T17:54:13.552Z,29.47
2022-08-24T17:56:42.121Z,29.39
2022-08-24T17:59:22.971Z,29.30
2022-08-24T18:01:53.787Z,29.20
2022-08-24T18:04:25.203Z,29.11
2022-08-24T18:06:53.400Z,29.01
2022-08-24T18:09:28.476Z,28.93
2022-08-24T18:11:56.761Z,28.83
2022-08-24T18:14:24.988Z,28.72
2022-08-24T18:16:54.320Z,28.61
2022-08-24T18:19:25.793Z,28.50
2022-08-24T18:21:54.093Z,28.36
2022-08-24T18:24:22.828Z,28.23
2022-08-24T18:26:50.977Z,28.10
2022-08-24T18:29:21.266Z,27.93
2022-08-24T18:31:49.300Z,27.74
2022-08-24T18:34:19.417Z,27.53
2022-08-24T18:36:47.670Z,27.33
2022-08-24T18:39:15.610Z,27.12
2022-08-24T18:41:49.271Z,26.92
2022-08-24T18:44:19.615Z,26.72
2022-08-24T18:46:48.361Z,26.53
2022-08-24T18:49:17.457Z,26.35
2022-08-24T18:51:47.362Z,26.19
2022-08-24T18:54:20.025Z,26.02
2022-08-24T18:56:49.064Z,25.87
2022-08-24T18:59:19.319Z,25.74
2022-08-24T19:02:08.385Z,25.61
2022-08-24T19:04:41.868Z,25.46
2022-08-24T19:07:10.687Z,25.31
2022-08-24T19:09:38.807Z,25.18
2022-08-24T19:12:07.885Z,25.06
2022-08-24T19:14:36.827Z,24.94
2022-08-24T19:17:05.656Z,24.83
2022-08-24T19:19:33.611Z,24.72
2022-08-24T19:22:02.338Z,24.63
2022-08-24T19:24:32.165Z,24.57
2022-08-24T19:27:01.755Z,24.48
2022-08-24T19:29:54.500Z,24.42
2022-08-24T19:32:22.165Z,24.33
2022-08-24T19:34:51.525Z,24.27
2022-08-24T19:37:19.798Z,24.21
2022-08-24T19:39:50.124Z,24.14
2022-08-24T19:42:19.585Z,24.07
2022-08-24T19:45:05.563Z,24.00
2022-08-24T19:47:33.972Z,23.91
2022-08-24T19:50:01.963Z,23.82
2022-08-24T19:52:32.554Z,23.76
2022-08-24T19:55:01.740Z,23.70
2022-08-24T19:57:35.805Z,23.64
2022-08-24T20:00:21.913Z,23.58
2022-08-24T20:02:51.670Z,23.52
2022-08-24T20:05:21.972Z,23.44
2022-08-24T20:07:50.908Z,23.39
2022-08-24T20:10:21.498Z,23.32
2022-08-24T20:12:50.427Z,23.24
2022-08-24T20:15:19.300Z,23.18
2022-08-24T20:17:48.561Z,23.13
2022-08-24T20:20:19.573Z,23.10
2022-08-24T20:22:46.565Z,23.05
2022-08-24T20:25:14.602Z,23.01
2022-08-24T20:27:45.080Z,22.96
2022-08-24T20:30:15.909Z,22.90
2022-08-24T20:32:43.722Z,22.85
2022-08-24T20:35:11.595Z,22.80
2022-08-24T20:37:41.486Z,22.74
2022-08-24T20:40:15.289Z,22.68
2022-08-24T20:42:43.387Z,22.62
2022-08-24T20:45:14.369Z,22.56
2022-08-24T20:47:48.007Z,22.51
2022-08-24T20:50:18.930Z,22.46
2022-08-24T20:52:46.924Z,22.39
2022-08-24T20:55:15.190Z,22.34
2022-08-24T20:57:47.469Z,22.29
2022-08-24T21:00:17.555Z,22.24
2022-08-24T21:02:45.506Z,22.19
2022-08-24T21:05:13.820Z,22.14
2022-08-24T21:07:48.648Z,22.10
2022-08-24T21:10:18.979Z,22.05
2022-08-24T21:12:47.815Z,22.01
2022-08-24T21:15:16.348Z,21.98
2022-08-24T21:17:45.060Z,21.94
2022-08-24T21:20:14.386Z,21.90
2022-08-24T21:22:45.258Z,21.85
2022-08-24T21:25:14.952Z,21.81
2022-08-24T21:27:44.246Z,21.76
2022-08-24T21:30:15.649Z,21.72
2022-08-24T21:33:02.386Z,21.69
2022-08-24T21:35:30.449Z,21.66
2022-08-24T21:37:58.335Z,21.63
2022-08-24T21:40:27.032Z,21.59
2022-08-24T21:42:54.915Z,21.53
2022-08-24T21:45:23.368Z,21.50
2022-08-24T21:47:51.166Z,21.47
2022-08-24T21:50:19.462Z,21.45
2022-08-24T21:52:53.628Z,21.42
2022-08-24T21:55:21.666Z,21.39
2022-08-24T21:57:49.515Z,21.37
2022-08-24T22:00:19.009Z,21.34
2022-08-24T22:02:47.348Z,21.32
2022-08-24T22:05:16.588Z,21.30
2022-08-24T22:07:45.286Z,21.28
2022-08-24T22:10:13.582Z,21.26
2022-08-24T22:12:42.461Z,21.24
2022-08-24T22:15:15.220Z,21.22
2022-08-24T22:17:43.661Z,21.20
2022-08-24T22:20:21.656Z,21.16
2022-08-24T22:22:51.887Z,21.13
2022-08-24T22:25:19.842Z,21.09
2022-08-24T22:27:47.956Z,21.06
2022-08-24T22:30:17.805Z,21.02
2022-08-24T22:32:45.868Z,20.98
2022-08-24T22:35:13.894Z,20.94
2022-08-24T22:37:41.564Z,20.90
2022-08-24T22:40:12.764Z,20.86
2022-08-24T22:42:40.844Z,20.83
2022-08-24T22:45:10.321Z,20.81
2022-08-24T22:47:38.429Z,20.79
2022-08-24T22:50:08.353Z,20.75
2022-08-24T22:52:36.397Z,20.72
2022-08-24T22:55:04.995Z,20.70
2022-08-24T22:57:33.173Z,20.68
2022-08-24T23:00:01.398Z,20.65
2022-08-24T23:02:29.398Z,20.63
2022-08-24T23:04:57.099Z,20.61
2022-08-24T23:07:25.179Z,20.59
2022-08-24T23:09:52.966Z,20.58
2022-08-24T23:12:23.497Z,20.57
2022-08-24T23:14:52.444Z,20.59
2022-08-24T23:17:21.239Z,20.60
2022-08-24T23:20:05.467Z,20.61
2022-08-24T23:22:35.756Z,20.61
2022-08-24T23:25:05.657Z,20.63
2022-08-24T23:27:38.653Z,20.64
2022-08-24T23:30:11.081Z,20.65
2022-08-24T23:32:39.793Z,20.65
2022-08-24T23:35:09.129Z,20.65
2022-08-24T23:37:36.956Z,20.65
2022-08-24T23:40:07.514Z,20.65
2022-08-24T23:42:35.337Z,20.68
2022-08-24T23:45:03.555Z,20.71
2022-08-24T23:47:35.874Z,20.72
2022-08-24T23:50:06.712Z,20.72
2022-08-24T23:52:39.975Z,20.72
2022-08-24T23:55:21.337Z,20.72
2022-08-24T23:57:51.065Z,20.71
